Archival Weather

Fukuoka

Fukuoka, Japan (RJFF)

Report from: Tuesday, August 16, 2022 11:30 PM JST
Current time: Sunday, November 27, 2022 5:16 PM JST

Current weather
Weather history
Weather forecast

Temperature27.0°C (80.6°F)
Heat index30.6°C (87.0°F)
Dew point25.0°C (77.0°F)
Winds 9 kts (4.6 m/s, 10.4 mph) Southeast (140°)
Visibility6.2 mi. (10 km)
Clouds Few clouds 4,200 ft. (1,280 m)
Scattered clouds 4,800 ft. (1,463 m)
Ceiling: Broken clouds 5,000 ft. (1,524 m)
Altimeter29.74 in.Hg (1007 mB)
Relative humidity89 %
Density altitude2,017 ft. (615 m)
Remarks Fully automated report
No significant changes expected in the next two hours
Flight conditions Visual Meteorological Conditions
Raw dataRJFF 161430Z AUTO 14009KT 9999 FEW042 SCT048 BKN050 //////TCU 27/25 Q1007 NOSIG
An error has occurred. This application may no longer respond until reloaded. Reload 🗙